sensor_id;sensor_type;location;lat;lon;timestamp;P1;durP1;ratioP1;P2;durP2;ratioP2
20988;SDS011;10653;47.052;15.410;2024-02-14T00:01:53;6.40;;;5.80;;
20988;SDS011;10653;47.052;15.410;2024-02-14T00:04:19;7.50;;;5.63;;
20988;SDS011;10653;47.052;15.410;2024-02-14T00:06:46;7.30;;;5.82;;
20988;SDS011;10653;47.052;15.410;2024-02-14T00:09:12;8.35;;;5.78;;
20988;SDS011;10653;47.052;15.410;2024-02-14T00:11:38;6.87;;;5.33;;
20988;SDS011;10653;47.052;15.410;2024-02-14T00:14:04;6.63;;;5.60;;
20988;SDS011;10653;47.052;15.410;2024-02-14T00:16:32;8.30;;;5.63;;
20988;SDS011;10653;47.052;15.410;2024-02-14T00:18:58;5.88;;;5.20;;
20988;SDS011;10653;47.052;15.410;2024-02-14T00:21:24;4.75;;;4.32;;
20988;SDS011;10653;47.052;15.410;2024-02-14T00:23:50;5.20;;;4.43;;
20988;SDS011;10653;47.052;15.410;2024-02-14T00:26:16;6.93;;;4.85;;
20988;SDS011;10653;47.052;15.410;2024-02-14T00:28:42;8.00;;;5.65;;
20988;SDS011;10653;47.052;15.410;2024-02-14T00:31:08;6.30;;;4.83;;
20988;SDS011;10653;47.052;15.410;2024-02-14T00:33:34;8.25;;;6.35;;
20988;SDS011;10653;47.052;15.410;2024-02-14T00:36:00;6.25;;;5.25;;
20988;SDS011;10653;47.052;15.410;2024-02-14T00:38:26;6.67;;;5.23;;
20988;SDS011;10653;47.052;15.410;2024-02-14T00:40:52;7.47;;;5.50;;
20988;SDS011;10653;47.052;15.410;2024-02-14T00:43:18;9.27;;;5.25;;
20988;SDS011;10653;47.052;15.410;2024-02-14T00:45:44;6.95;;;5.18;;
20988;SDS011;10653;47.052;15.410;2024-02-14T00:48:10;6.68;;;5.28;;
20988;SDS011;10653;47.052;15.410;2024-02-14T00:50:37;5.78;;;5.20;;
20988;SDS011;10653;47.052;15.410;2024-02-14T00:53:03;5.53;;;4.32;;
20988;SDS011;10653;47.052;15.410;2024-02-14T00:55:29;5.93;;;5.00;;
20988;SDS011;10653;47.052;15.410;2024-02-14T00:57:55;5.80;;;5.30;;
20988;SDS011;10653;47.052;15.410;2024-02-14T01:00:21;7.22;;;5.00;;
20988;SDS011;10653;47.052;15.410;2024-02-14T01:02:47;8.20;;;5.38;;
20988;SDS011;10653;47.052;15.410;2024-02-14T01:05:13;7.70;;;5.30;;
20988;SDS011;10653;47.052;15.410;2024-02-14T01:07:39;4.10;;;3.72;;
20988;SDS011;10653;47.052;15.410;2024-02-14T01:10:05;5.53;;;4.85;;
20988;SDS011;10653;47.052;15.410;2024-02-14T01:12:31;6.60;;;4.78;;
20988;SDS011;10653;47.052;15.410;2024-02-14T01:14:57;4.87;;;4.47;;
20988;SDS011;10653;47.052;15.410;2024-02-14T01:17:23;5.25;;;4.70;;
20988;SDS011;10653;47.052;15.410;2024-02-14T01:19:50;6.15;;;4.50;;
20988;SDS011;10653;47.052;15.410;2024-02-14T01:22:16;6.93;;;4.50;;
20988;SDS011;10653;47.052;15.410;2024-02-14T01:24:42;5.43;;;4.30;;
20988;SDS011;10653;47.052;15.410;2024-02-14T01:27:08;5.30;;;4.20;;
20988;SDS011;10653;47.052;15.410;2024-02-14T01:29:34;4.72;;;3.90;;
20988;SDS011;10653;47.052;15.410;2024-02-14T01:32:00;5.70;;;3.47;;
20988;SDS011;10653;47.052;15.410;2024-02-14T01:34:26;4.67;;;3.97;;
20988;SDS011;10653;47.052;15.410;2024-02-14T01:36:56;6.28;;;4.82;;
20988;SDS011;10653;47.052;15.410;2024-02-14T01:39:22;7.30;;;4.37;;
20988;SDS011;10653;47.052;15.410;2024-02-14T01:41:48;4.95;;;4.47;;
20988;SDS011;10653;47.052;15.410;2024-02-14T01:44:17;7.05;;;4.10;;
20988;SDS011;10653;47.052;15.410;2024-02-14T01:46:44;5.20;;;4.70;;
20988;SDS011;10653;47.052;15.410;2024-02-14T01:49:10;7.05;;;4.15;;
20988;SDS011;10653;47.052;15.410;2024-02-14T01:51:40;6.28;;;5.50;;
20988;SDS011;10653;47.052;15.410;2024-02-14T01:54:09;5.88;;;4.93;;
20988;SDS011;10653;47.052;15.410;2024-02-14T01:56:36;5.15;;;4.57;;
20988;SDS011;10653;47.052;15.410;2024-02-14T01:59:02;7.20;;;4.72;;
20988;SDS011;10653;47.052;15.410;2024-02-14T02:01:30;4.50;;;4.10;;
20988;SDS011;10653;47.052;15.410;2024-02-14T02:03:56;5.43;;;4.93;;
20988;SDS011;10653;47.052;15.410;2024-02-14T02:06:22;5.45;;;4.95;;
20988;SDS011;10653;47.052;15.410;2024-02-14T02:08:49;4.63;;;4.20;;
20988;SDS011;10653;47.052;15.410;2024-02-14T02:11:15;6.35;;;5.15;;
20988;SDS011;10653;47.052;15.410;2024-02-14T02:13:41;5.73;;;4.53;;
20988;SDS011;10653;47.052;15.410;2024-02-14T02:16:07;4.85;;;4.45;;
20988;SDS011;10653;47.052;15.410;2024-02-14T02:18:33;5.27;;;4.77;;
20988;SDS011;10653;47.052;15.410;2024-02-14T02:20:59;5.00;;;4.50;;
20988;SDS011;10653;47.052;15.410;2024-02-14T02:23:25;4.43;;;4.03;;
20988;SDS011;10653;47.052;15.410;2024-02-14T02:25:51;7.40;;;4.40;;
20988;SDS011;10653;47.052;15.410;2024-02-14T02:28:17;5.30;;;4.18;;
20988;SDS011;10653;47.052;15.410;2024-02-14T02:30:43;6.80;;;4.77;;
20988;SDS011;10653;47.052;15.410;2024-02-14T02:33:11;5.13;;;4.38;;
20988;SDS011;10653;47.052;15.410;2024-02-14T02:35:40;7.55;;;5.50;;
20988;SDS011;10653;47.052;15.410;2024-02-14T02:38:06;6.20;;;5.60;;
20988;SDS011;10653;47.052;15.410;2024-02-14T02:40:32;8.15;;;6.28;;
20988;SDS011;10653;47.052;15.410;2024-02-14T02:42:58;6.60;;;5.10;;
20988;SDS011;10653;47.052;15.410;2024-02-14T02:45:25;9.13;;;5.20;;
20988;SDS011;10653;47.052;15.410;2024-02-14T02:47:51;6.15;;;5.22;;
20988;SDS011;10653;47.052;15.410;2024-02-14T02:50:17;7.05;;;4.13;;
20988;SDS011;10653;47.052;15.410;2024-02-14T02:52:44;6.55;;;5.43;;
20988;SDS011;10653;47.052;15.410;2024-02-14T02:55:10;5.67;;;5.07;;
20988;SDS011;10653;47.052;15.410;2024-02-14T02:57:36;7.30;;;5.13;;
20988;SDS011;10653;47.052;15.410;2024-02-14T03:00:05;7.50;;;4.70;;
20988;SDS011;10653;47.052;15.410;2024-02-14T03:02:37;4.38;;;3.92;;
20988;SDS011;10653;47.052;15.410;2024-02-14T03:05:06;6.30;;;4.60;;
20988;SDS011;10653;47.052;15.410;2024-02-14T03:07:35;4.97;;;4.40;;
20988;SDS011;10653;47.052;15.410;2024-02-14T03:10:01;5.28;;;4.00;;
20988;SDS011;10653;47.052;15.410;2024-02-14T03:12:28;3.85;;;3.50;;
20988;SDS011;10653;47.052;15.410;2024-02-14T03:14:56;6.90;;;4.13;;
20988;SDS011;10653;47.052;15.410;2024-02-14T03:17:23;5.18;;;4.68;;
20988;SDS011;10653;47.052;15.410;2024-02-14T03:19:49;9.93;;;4.70;;
20988;SDS011;10653;47.052;15.410;2024-02-14T03:22:16;6.43;;;4.70;;
20988;SDS011;10653;47.052;15.410;2024-02-14T03:24:44;4.82;;;4.32;;
20988;SDS011;10653;47.052;15.410;2024-02-14T03:27:12;6.57;;;4.55;;
20988;SDS011;10653;47.052;15.410;2024-02-14T03:29:38;4.32;;;3.75;;
20988;SDS011;10653;47.052;15.410;2024-02-14T03:32:07;6.23;;;4.10;;
20988;SDS011;10653;47.052;15.410;2024-02-14T03:34:33;4.75;;;3.53;;
20988;SDS011;10653;47.052;15.410;2024-02-14T03:37:00;6.32;;;3.80;;
20988;SDS011;10653;47.052;15.410;2024-02-14T03:39:27;4.20;;;3.22;;
20988;SDS011;10653;47.052;15.410;2024-02-14T03:41:53;4.43;;;3.55;;
20988;SDS011;10653;47.052;15.410;2024-02-14T03:44:21;5.13;;;3.50;;
20988;SDS011;10653;47.052;15.410;2024-02-14T03:46:47;5.45;;;4.10;;
20988;SDS011;10653;47.052;15.410;2024-02-14T03:49:13;5.90;;;5.30;;
20988;SDS011;10653;47.052;15.410;2024-02-14T03:51:39;5.22;;;4.75;;
20988;SDS011;10653;47.052;15.410;2024-02-14T03:54:05;6.15;;;4.78;;
20988;SDS011;10653;47.052;15.410;2024-02-14T03:56:31;5.68;;;4.13;;
20988;SDS011;10653;47.052;15.410;2024-02-14T03:59:02;4.63;;;4.20;;
20988;SDS011;10653;47.052;15.410;2024-02-14T04:01:30;6.32;;;5.55;;
20988;SDS011;10653;47.052;15.410;2024-02-14T04:03:56;7.10;;;5.03;;
20988;SDS011;10653;47.052;15.410;2024-02-14T04:06:22;6.33;;;5.20;;
20988;SDS011;10653;47.052;15.410;2024-02-14T04:08:51;6.22;;;5.07;;
20988;SDS011;10653;47.052;15.410;2024-02-14T04:11:17;4.83;;;4.43;;
20988;SDS011;10653;47.052;15.410;2024-02-14T04:13:43;7.50;;;4.90;;
20988;SDS011;10653;47.052;15.410;2024-02-14T04:16:09;8.00;;;4.60;;
20988;SDS011;10653;47.052;15.410;2024-02-14T04:18:35;6.63;;;5.50;;
20988;SDS011;10653;47.052;15.410;2024-02-14T04:21:01;6.63;;;5.73;;
20988;SDS011;10653;47.052;15.410;2024-02-14T04:23:29;7.13;;;5.10;;
20988;SDS011;10653;47.052;15.410;2024-02-14T04:25:55;5.78;;;4.90;;
20988;SDS011;10653;47.052;15.410;2024-02-14T04:28:22;5.00;;;4.50;;
20988;SDS011;10653;47.052;15.410;2024-02-14T04:30:48;10.33;;;5.20;;
20988;SDS011;10653;47.052;15.410;2024-02-14T04:33:14;6.47;;;4.63;;
20988;SDS011;10653;47.052;15.410;2024-02-14T04:35:40;6.97;;;4.28;;
20988;SDS011;10653;47.052;15.410;2024-02-14T04:38:06;6.43;;;4.75;;
20988;SDS011;10653;47.052;15.410;2024-02-14T04:40:33;4.45;;;3.90;;
20988;SDS011;10653;47.052;15.410;2024-02-14T04:42:59;4.53;;;3.87;;
20988;SDS011;10653;47.052;15.410;2024-02-14T04:45:25;3.63;;;3.33;;
20988;SDS011;10653;47.052;15.410;2024-02-14T04:47:51;5.10;;;3.73;;
20988;SDS011;10653;47.052;15.410;2024-02-14T04:50:17;5.67;;;3.90;;
20988;SDS011;10653;47.052;15.410;2024-02-14T04:52:44;4.88;;;3.85;;
20988;SDS011;10653;47.052;15.410;2024-02-14T04:55:10;5.97;;;4.53;;
20988;SDS011;10653;47.052;15.410;2024-02-14T04:57:36;3.92;;;3.63;;
20988;SDS011;10653;47.052;15.410;2024-02-14T05:00:03;7.75;;;4.07;;
20988;SDS011;10653;47.052;15.410;2024-02-14T05:02:30;5.03;;;3.90;;
20988;SDS011;10653;47.052;15.410;2024-02-14T05:04:56;3.88;;;3.47;;
20988;SDS011;10653;47.052;15.410;2024-02-14T05:07:22;4.70;;;3.38;;
20988;SDS011;10653;47.052;15.410;2024-02-14T05:09:48;3.80;;;3.27;;
20988;SDS011;10653;47.052;15.410;2024-02-14T05:12:16;5.70;;;5.05;;
20988;SDS011;10653;47.052;15.410;2024-02-14T05:14:42;4.13;;;3.73;;
20988;SDS011;10653;47.052;15.410;2024-02-14T05:17:08;5.60;;;3.72;;
20988;SDS011;10653;47.052;15.410;2024-02-14T05:19:34;11.75;;;9.82;;
20988;SDS011;10653;47.052;15.410;2024-02-14T05:22:00;6.60;;;5.90;;
20988;SDS011;10653;47.052;15.410;2024-02-14T05:24:26;7.30;;;6.03;;
20988;SDS011;10653;47.052;15.410;2024-02-14T05:26:54;6.30;;;5.70;;
20988;SDS011;10653;47.052;15.410;2024-02-14T05:29:20;10.50;;;7.32;;
20988;SDS011;10653;47.052;15.410;2024-02-14T05:31:47;12.75;;;8.25;;
20988;SDS011;10653;47.052;15.410;2024-02-14T05:34:14;13.52;;;8.73;;
20988;SDS011;10653;47.052;15.410;2024-02-14T05:36:40;8.98;;;8.05;;
20988;SDS011;10653;47.052;15.410;2024-02-14T05:39:07;6.40;;;5.72;;
20988;SDS011;10653;47.052;15.410;2024-02-14T05:41:33;8.10;;;6.30;;
20988;SDS011;10653;47.052;15.410;2024-02-14T05:44:00;8.27;;;5.78;;
20988;SDS011;10653;47.052;15.410;2024-02-14T05:46:26;8.15;;;6.35;;
20988;SDS011;10653;47.052;15.410;2024-02-14T05:48:53;12.43;;;6.72;;
20988;SDS011;10653;47.052;15.410;2024-02-14T05:51:19;7.50;;;6.80;;
20988;SDS011;10653;47.052;15.410;2024-02-14T05:53:45;9.75;;;6.57;;
20988;SDS011;10653;47.052;15.410;2024-02-14T05:56:11;7.50;;;6.00;;
20988;SDS011;10653;47.052;15.410;2024-02-14T05:58:37;7.53;;;6.73;;
20988;SDS011;10653;47.052;15.410;2024-02-14T06:01:03;9.90;;;7.90;;
20988;SDS011;10653;47.052;15.410;2024-02-14T06:03:30;14.75;;;9.45;;
20988;SDS011;10653;47.052;15.410;2024-02-14T06:05:56;13.00;;;10.03;;
20988;SDS011;10653;47.052;15.410;2024-02-14T06:08:22;11.65;;;6.95;;
20988;SDS011;10653;47.052;15.410;2024-02-14T06:10:49;7.57;;;6.25;;
20988;SDS011;10653;47.052;15.410;2024-02-14T06:13:15;8.77;;;5.50;;
20988;SDS011;10653;47.052;15.410;2024-02-14T06:15:41;7.38;;;5.95;;
20988;SDS011;10653;47.052;15.410;2024-02-14T06:18:07;8.70;;;5.50;;
20988;SDS011;10653;47.052;15.410;2024-02-14T06:20:33;8.10;;;5.30;;
20988;SDS011;10653;47.052;15.410;2024-02-14T06:22:59;7.17;;;5.57;;
20988;SDS011;10653;47.052;15.410;2024-02-14T06:25:25;7.38;;;5.95;;
20988;SDS011;10653;47.052;15.410;2024-02-14T06:27:51;5.50;;;5.00;;
20988;SDS011;10653;47.052;15.410;2024-02-14T06:30:19;8.63;;;5.65;;
20988;SDS011;10653;47.052;15.410;2024-02-14T06:32:45;6.30;;;5.03;;
20988;SDS011;10653;47.052;15.410;2024-02-14T06:35:11;5.93;;;4.93;;
20988;SDS011;10653;47.052;15.410;2024-02-14T06:37:39;6.70;;;4.88;;
20988;SDS011;10653;47.052;15.410;2024-02-14T06:40:06;7.90;;;4.82;;
20988;SDS011;10653;47.052;15.410;2024-02-14T06:42:33;9.27;;;5.10;;
20988;SDS011;10653;47.052;15.410;2024-02-14T06:44:59;7.85;;;6.38;;
20988;SDS011;10653;47.052;15.410;2024-02-14T06:47:25;5.97;;;5.33;;
20988;SDS011;10653;47.052;15.410;2024-02-14T06:49:55;10.30;;;6.03;;
20988;SDS011;10653;47.052;15.410;2024-02-14T06:52:21;8.32;;;5.57;;
20988;SDS011;10653;47.052;15.410;2024-02-14T06:54:46;8.87;;;6.47;;
20988;SDS011;10653;47.052;15.410;2024-02-14T06:57:13;29.75;;;16.27;;
20988;SDS011;10653;47.052;15.410;2024-02-14T06:59:39;17.80;;;11.20;;
20988;SDS011;10653;47.052;15.410;2024-02-14T07:02:05;10.43;;;7.53;;
20988;SDS011;10653;47.052;15.410;2024-02-14T07:04:31;10.38;;;7.93;;
20988;SDS011;10653;47.052;15.410;2024-02-14T07:06:57;12.05;;;6.95;;
20988;SDS011;10653;47.052;15.410;2024-02-14T07:09:23;11.75;;;8.35;;
20988;SDS011;10653;47.052;15.410;2024-02-14T07:11:50;12.00;;;7.50;;
20988;SDS011;10653;47.052;15.410;2024-02-14T07:14:18;10.88;;;7.57;;
20988;SDS011;10653;47.052;15.410;2024-02-14T07:16:44;10.07;;;7.18;;
20988;SDS011;10653;47.052;15.410;2024-02-14T07:19:10;9.13;;;7.25;;
20988;SDS011;10653;47.052;15.410;2024-02-14T07:21:36;12.57;;;6.93;;
20988;SDS011;10653;47.052;15.410;2024-02-14T07:24:05;13.60;;;8.00;;
20988;SDS011;10653;47.052;15.410;2024-02-14T07:26:31;8.27;;;7.20;;
20988;SDS011;10653;47.052;15.410;2024-02-14T07:28:57;8.30;;;6.60;;
20988;SDS011;10653;47.052;15.410;2024-02-14T07:31:23;7.18;;;6.03;;
20988;SDS011;10653;47.052;15.410;2024-02-14T07:33:49;7.10;;;6.03;;
20988;SDS011;10653;47.052;15.410;2024-02-14T07:36:18;7.00;;;5.75;;
20988;SDS011;10653;47.052;15.410;2024-02-14T07:38:44;8.57;;;6.97;;
20988;SDS011;10653;47.052;15.410;2024-02-14T07:41:10;10.45;;;9.32;;
20988;SDS011;10653;47.052;15.410;2024-02-14T07:43:36;15.20;;;7.70;;
20988;SDS011;10653;47.052;15.410;2024-02-14T07:46:02;10.87;;;7.93;;
20988;SDS011;10653;47.052;15.410;2024-02-14T07:48:30;18.90;;;8.27;;
20988;SDS011;10653;47.052;15.410;2024-02-14T07:50:56;11.23;;;8.18;;
20988;SDS011;10653;47.052;15.410;2024-02-14T07:53:24;15.82;;;7.93;;
20988;SDS011;10653;47.052;15.410;2024-02-14T07:55:50;13.40;;;7.72;;
20988;SDS011;10653;47.052;15.410;2024-02-14T07:58:17;15.63;;;8.07;;
20988;SDS011;10653;47.052;15.410;2024-02-14T08:00:43;15.30;;;8.93;;
20988;SDS011;10653;47.052;15.410;2024-02-14T08:03:09;11.90;;;8.53;;
20988;SDS011;10653;47.052;15.410;2024-02-14T08:05:35;10.77;;;7.73;;
20988;SDS011;10653;47.052;15.410;2024-02-14T08:08:01;18.02;;;8.45;;
20988;SDS011;10653;47.052;15.410;2024-02-14T08:10:27;12.32;;;9.40;;
20988;SDS011;10653;47.052;15.410;2024-02-14T08:12:53;10.13;;;7.85;;
20988;SDS011;10653;47.052;15.410;2024-02-14T08:15:19;11.40;;;8.33;;
20988;SDS011;10653;47.052;15.410;2024-02-14T08:17:46;13.07;;;8.23;;
20988;SDS011;10653;47.052;15.410;2024-02-14T08:20:12;12.10;;;8.47;;
20988;SDS011;10653;47.052;15.410;2024-02-14T08:22:38;14.45;;;7.60;;
20988;SDS011;10653;47.052;15.410;2024-02-14T08:25:04;8.25;;;6.93;;
20988;SDS011;10653;47.052;15.410;2024-02-14T08:27:30;10.65;;;6.97;;
20988;SDS011;10653;47.052;15.410;2024-02-14T08:29:56;10.13;;;7.35;;
20988;SDS011;10653;47.052;15.410;2024-02-14T08:32:22;7.77;;;6.97;;
20988;SDS011;10653;47.052;15.410;2024-02-14T08:34:48;16.23;;;7.70;;
20988;SDS011;10653;47.052;15.410;2024-02-14T08:37:17;11.63;;;8.02;;
20988;SDS011;10653;47.052;15.410;2024-02-14T08:39:44;18.85;;;8.23;;
20988;SDS011;10653;47.052;15.410;2024-02-14T08:42:10;11.85;;;7.75;;
20988;SDS011;10653;47.052;15.410;2024-02-14T08:44:36;9.02;;;6.38;;
20988;SDS011;10653;47.052;15.410;2024-02-14T08:47:03;8.20;;;6.57;;
20988;SDS011;10653;47.052;15.410;2024-02-14T08:49:29;9.18;;;6.45;;
20988;SDS011;10653;47.052;15.410;2024-02-14T08:51:55;8.27;;;5.70;;
20988;SDS011;10653;47.052;15.410;2024-02-14T08:54:21;7.93;;;6.43;;
20988;SDS011;10653;47.052;15.410;2024-02-14T08:56:48;12.63;;;6.50;;
20988;SDS011;10653;47.052;15.410;2024-02-14T08:59:14;8.65;;;7.00;;
20988;SDS011;10653;47.052;15.410;2024-02-14T09:01:40;8.00;;;5.55;;
20988;SDS011;10653;47.052;15.410;2024-02-14T09:04:06;10.83;;;6.00;;
20988;SDS011;10653;47.052;15.410;2024-02-14T09:06:32;8.10;;;6.43;;
20988;SDS011;10653;47.052;15.410;2024-02-14T09:08:58;8.70;;;6.10;;
20988;SDS011;10653;47.052;15.410;2024-02-14T09:11:24;10.00;;;6.20;;
20988;SDS011;10653;47.052;15.410;2024-02-14T09:13:51;10.03;;;5.40;;
20988;SDS011;10653;47.052;15.410;2024-02-14T09:16:20;6.77;;;5.97;;
20988;SDS011;10653;47.052;15.410;2024-02-14T09:18:48;10.63;;;5.00;;
20988;SDS011;10653;47.052;15.410;2024-02-14T09:21:14;7.50;;;5.00;;
20988;SDS011;10653;47.052;15.410;2024-02-14T09:23:40;7.60;;;5.27;;
20988;SDS011;10653;47.052;15.410;2024-02-14T09:26:06;9.90;;;5.03;;
20988;SDS011;10653;47.052;15.410;2024-02-14T09:28:32;9.47;;;4.50;;
20988;SDS011;10653;47.052;15.410;2024-02-14T09:31:00;5.63;;;3.77;;
20988;SDS011;10653;47.052;15.410;2024-02-14T09:33:26;8.07;;;4.10;;
20988;SDS011;10653;47.052;15.410;2024-02-14T09:35:52;7.37;;;4.17;;
20988;SDS011;10653;47.052;15.410;2024-02-14T09:38:18;5.03;;;3.67;;
20988;SDS011;10653;47.052;15.410;2024-02-14T09:40:44;6.30;;;4.17;;
20988;SDS011;10653;47.052;15.410;2024-02-14T09:43:17;4.03;;;3.60;;
20988;SDS011;10653;47.052;15.410;2024-02-14T09:45:49;10.13;;;4.20;;
20988;SDS011;10653;47.052;15.410;2024-02-14T09:48:17;6.00;;;4.20;;
20988;SDS011;10653;47.052;15.410;2024-02-14T09:50:44;7.37;;;5.10;;
20988;SDS011;10653;47.052;15.410;2024-02-14T09:53:10;11.00;;;6.80;;
20988;SDS011;10653;47.052;15.410;2024-02-14T09:55:37;8.30;;;5.90;;
20988;SDS011;10653;47.052;15.410;2024-02-14T09:58:05;10.20;;;6.33;;
20988;SDS011;10653;47.052;15.410;2024-02-14T10:00:32;11.40;;;6.40;;
20988;SDS011;10653;47.052;15.410;2024-02-14T10:02:58;8.10;;;6.00;;
20988;SDS011;10653;47.052;15.410;2024-02-14T10:05:24;10.13;;;5.60;;
20988;SDS011;10653;47.052;15.410;2024-02-14T10:07:50;9.80;;;5.70;;
20988;SDS011;10653;47.052;15.410;2024-02-14T10:10:16;7.63;;;5.70;;
20988;SDS011;10653;47.052;15.410;2024-02-14T10:12:42;9.00;;;5.40;;
20988;SDS011;10653;47.052;15.410;2024-02-14T10:15:08;6.33;;;4.73;;
20988;SDS011;10653;47.052;15.410;2024-02-14T10:17:35;9.00;;;5.70;;
20988;SDS011;10653;47.052;15.410;2024-02-14T10:20:01;8.33;;;5.50;;
20988;SDS011;10653;47.052;15.410;2024-02-14T10:22:34;8.07;;;4.90;;
20988;SDS011;10653;47.052;15.410;2024-02-14T10:25:02;7.97;;;4.87;;
20988;SDS011;10653;47.052;15.410;2024-02-14T10:27:29;8.43;;;5.47;;
20988;SDS011;10653;47.052;15.410;2024-02-14T10:29:56;7.57;;;5.23;;
20988;SDS011;10653;47.052;15.410;2024-02-14T10:32:22;8.33;;;4.47;;
20988;SDS011;10653;47.052;15.410;2024-02-14T10:34:49;7.83;;;5.10;;
20988;SDS011;10653;47.052;15.410;2024-02-14T10:37:15;6.60;;;4.50;;
20988;SDS011;10653;47.052;15.410;2024-02-14T10:39:44;5.17;;;4.67;;
20988;SDS011;10653;47.052;15.410;2024-02-14T10:42:12;8.80;;;4.70;;
20988;SDS011;10653;47.052;15.410;2024-02-14T10:44:38;8.43;;;5.17;;
20988;SDS011;10653;47.052;15.410;2024-02-14T10:47:05;8.30;;;5.03;;
20988;SDS011;10653;47.052;15.410;2024-02-14T10:49:32;7.40;;;4.77;;
20988;SDS011;10653;47.052;15.410;2024-02-14T10:51:58;4.90;;;3.47;;
20988;SDS011;10653;47.052;15.410;2024-02-14T10:54:27;6.97;;;3.83;;
20988;SDS011;10653;47.052;15.410;2024-02-14T10:56:53;6.30;;;4.00;;
20988;SDS011;10653;47.052;15.410;2024-02-14T10:59:21;5.10;;;2.90;;
20988;SDS011;10653;47.052;15.410;2024-02-14T11:01:48;7.30;;;3.00;;
20988;SDS011;10653;47.052;15.410;2024-02-14T11:04:15;4.40;;;3.07;;
20988;SDS011;10653;47.052;15.410;2024-02-14T11:06:45;5.20;;;2.87;;
20988;SDS011;10653;47.052;15.410;2024-02-14T11:09:11;5.00;;;2.73;;
20988;SDS011;10653;47.052;15.410;2024-02-14T11:11:40;4.80;;;3.33;;
20988;SDS011;10653;47.052;15.410;2024-02-14T11:14:06;4.33;;;2.70;;
20988;SDS011;10653;47.052;15.410;2024-02-14T11:16:32;4.10;;;2.70;;
20988;SDS011;10653;47.052;15.410;2024-02-14T11:21:40;3.20;;;2.50;;
20988;SDS011;10653;47.052;15.410;2024-02-14T11:24:10;4.60;;;2.90;;
20988;SDS011;10653;47.052;15.410;2024-02-14T11:26:38;13.77;;;3.13;;
20988;SDS011;10653;47.052;15.410;2024-02-14T11:29:04;3.90;;;2.37;;
20988;SDS011;10653;47.052;15.410;2024-02-14T11:31:33;5.60;;;3.20;;
20988;SDS011;10653;47.052;15.410;2024-02-14T11:34:03;3.80;;;2.43;;
20988;SDS011;10653;47.052;15.410;2024-02-14T11:36:30;3.50;;;2.37;;
20988;SDS011;10653;47.052;15.410;2024-02-14T11:38:58;3.73;;;2.53;;
20988;SDS011;10653;47.052;15.410;2024-02-14T11:41:24;3.80;;;2.50;;
20988;SDS011;10653;47.052;15.410;2024-02-14T11:43:52;6.20;;;2.80;;
20988;SDS011;10653;47.052;15.410;2024-02-14T11:46:18;5.50;;;3.20;;
20988;SDS011;10653;47.052;15.410;2024-02-14T11:48:45;6.37;;;3.60;;
20988;SDS011;10653;47.052;15.410;2024-02-14T11:51:11;5.10;;;3.33;;
20988;SDS011;10653;47.052;15.410;2024-02-14T11:53:38;6.23;;;3.80;;
20988;SDS011;10653;47.052;15.410;2024-02-14T11:56:06;8.90;;;3.83;;
20988;SDS011;10653;47.052;15.410;2024-02-14T11:58:32;4.00;;;3.10;;
20988;SDS011;10653;47.052;15.410;2024-02-14T12:00:59;4.07;;;2.77;;
20988;SDS011;10653;47.052;15.410;2024-02-14T12:03:32;4.70;;;3.20;;
20988;SDS011;10653;47.052;15.410;2024-02-14T12:06:00;6.07;;;3.13;;
20988;SDS011;10653;47.052;15.410;2024-02-14T12:08:27;6.27;;;3.03;;
20988;SDS011;10653;47.052;15.410;2024-02-14T12:10:53;3.60;;;2.53;;
20988;SDS011;10653;47.052;15.410;2024-02-14T12:13:20;5.77;;;2.60;;
20988;SDS011;10653;47.052;15.410;2024-02-14T12:15:47;5.10;;;2.23;;
20988;SDS011;10653;47.052;15.410;2024-02-14T12:18:14;3.03;;;1.63;;
20988;SDS011;10653;47.052;15.410;2024-02-14T12:20:40;2.93;;;1.93;;
20988;SDS011;10653;47.052;15.410;2024-02-14T12:23:08;3.63;;;2.10;;
20988;SDS011;10653;47.052;15.410;2024-02-14T12:25:34;3.53;;;1.70;;
20988;SDS011;10653;47.052;15.410;2024-02-14T12:28:00;1.67;;;1.40;;
20988;SDS011;10653;47.052;15.410;2024-02-14T12:30:28;3.23;;;1.30;;
20988;SDS011;10653;47.052;15.410;2024-02-14T12:33:09;3.90;;;1.53;;
20988;SDS011;10653;47.052;15.410;2024-02-14T12:35:36;6.33;;;1.70;;
20988;SDS011;10653;47.052;15.410;2024-02-14T12:38:07;7.60;;;1.20;;
20988;SDS011;10653;47.052;15.410;2024-02-14T12:40:35;2.33;;;1.73;;
20988;SDS011;10653;47.052;15.410;2024-02-14T12:43:01;3.60;;;1.00;;
20988;SDS011;10653;47.052;15.410;2024-02-14T12:45:27;4.73;;;1.23;;
20988;SDS011;10653;47.052;15.410;2024-02-14T12:47:53;4.20;;;1.70;;
20988;SDS011;10653;47.052;15.410;2024-02-14T12:50:19;3.20;;;1.03;;
20988;SDS011;10653;47.052;15.410;2024-02-14T12:52:45;2.20;;;0.90;;
20988;SDS011;10653;47.052;15.410;2024-02-14T12:55:12;3.17;;;1.33;;
20988;SDS011;10653;47.052;15.410;2024-02-14T12:57:38;1.00;;;0.73;;
20988;SDS011;10653;47.052;15.410;2024-02-14T13:00:05;0.83;;;0.70;;
20988;SDS011;10653;47.052;15.410;2024-02-14T13:02:33;4.63;;;1.90;;
20988;SDS011;10653;47.052;15.410;2024-02-14T13:04:59;2.00;;;1.13;;
20988;SDS011;10653;47.052;15.410;2024-02-14T13:07:29;3.13;;;1.43;;
20988;SDS011;10653;47.052;15.410;2024-02-14T13:09:55;2.43;;;1.03;;
20988;SDS011;10653;47.052;15.410;2024-02-14T13:12:21;2.30;;;1.10;;
20988;SDS011;10653;47.052;15.410;2024-02-14T13:14:48;1.23;;;0.90;;
20988;SDS011;10653;47.052;15.410;2024-02-14T13:17:14;2.07;;;0.90;;
20988;SDS011;10653;47.052;15.410;2024-02-14T13:19:40;2.80;;;0.97;;
20988;SDS011;10653;47.052;15.410;2024-02-14T13:22:08;2.07;;;0.90;;
20988;SDS011;10653;47.052;15.410;2024-02-14T13:24:34;1.67;;;1.00;;
20988;SDS011;10653;47.052;15.410;2024-02-14T13:27:00;1.50;;;1.00;;
20988;SDS011;10653;47.052;15.410;2024-02-14T13:29:26;1.17;;;0.90;;
20988;SDS011;10653;47.052;15.410;2024-02-14T13:31:53;1.63;;;1.00;;
20988;SDS011;10653;47.052;15.410;2024-02-14T13:34:19;1.30;;;1.00;;
20988;SDS011;10653;47.052;15.410;2024-02-14T13:36:45;4.17;;;1.23;;
20988;SDS011;10653;47.052;15.410;2024-02-14T13:39:12;1.87;;;0.90;;
20988;SDS011;10653;47.052;15.410;2024-02-14T13:41:38;2.63;;;1.00;;
20988;SDS011;10653;47.052;15.410;2024-02-14T13:44:07;2.50;;;1.40;;
20988;SDS011;10653;47.052;15.410;2024-02-14T13:46:34;1.40;;;1.00;;
20988;SDS011;10653;47.052;15.410;2024-02-14T13:49:00;5.03;;;1.33;;
20988;SDS011;10653;47.052;15.410;2024-02-14T13:51:26;2.97;;;1.30;;
20988;SDS011;10653;47.052;15.410;2024-02-14T13:53:53;3.13;;;1.10;;
20988;SDS011;10653;47.052;15.410;2024-02-14T13:56:19;3.87;;;1.33;;
20988;SDS011;10653;47.052;15.410;2024-02-14T13:58:49;1.60;;;1.10;;
20988;SDS011;10653;47.052;15.410;2024-02-14T14:01:15;2.27;;;1.13;;
20988;SDS011;10653;47.052;15.410;2024-02-14T14:03:42;1.53;;;1.03;;
20988;SDS011;10653;47.052;15.410;2024-02-14T14:06:08;1.17;;;1.00;;
20988;SDS011;10653;47.052;15.410;2024-02-14T14:08:35;2.10;;;1.20;;
20988;SDS011;10653;47.052;15.410;2024-02-14T14:11:04;2.90;;;0.90;;
20988;SDS011;10653;47.052;15.410;2024-02-14T14:13:30;2.97;;;1.20;;
20988;SDS011;10653;47.052;15.410;2024-02-14T14:15:58;2.30;;;1.30;;
20988;SDS011;10653;47.052;15.410;2024-02-14T14:18:24;1.37;;;1.10;;
20988;SDS011;10653;47.052;15.410;2024-02-14T14:20:50;2.30;;;0.77;;
20988;SDS011;10653;47.052;15.410;2024-02-14T14:23:17;1.10;;;0.80;;
20988;SDS011;10653;47.052;15.410;2024-02-14T14:25:43;1.63;;;0.70;;
20988;SDS011;10653;47.052;15.410;2024-02-14T14:28:09;1.30;;;1.00;;
20988;SDS011;10653;47.052;15.410;2024-02-14T14:30:36;1.40;;;1.10;;
20988;SDS011;10653;47.052;15.410;2024-02-14T14:33:02;1.77;;;0.87;;